sensor_id;sensor_type;location;lat;lon;timestamp;temperature;humidity
44170;DHT22;29836;52.286;9.576;2023-03-01T00:00:46;-4.30;99.90
44170;DHT22;29836;52.286;9.576;2023-03-01T00:03:12;-4.20;99.90
44170;DHT22;29836;52.286;9.576;2023-03-01T00:05:44;-4.20;99.90
44170;DHT22;29836;52.286;9.576;2023-03-01T00:08:10;-4.30;99.90
44170;DHT22;29836;52.286;9.576;2023-03-01T00:10:36;-4.20;99.90
44170;DHT22;29836;52.286;9.576;2023-03-01T00:13:01;-4.20;99.90
44170;DHT22;29836;52.286;9.576;2023-03-01T00:15:27;-4.20;99.90
44170;DHT22;29836;52.286;9.576;2023-03-01T00:17:53;-4.10;99.90
44170;DHT22;29836;52.286;9.576;2023-03-01T00:20:18;-4.10;99.90
44170;DHT22;29836;52.286;9.576;2023-03-01T00:22:44;-4.20;99.90
44170;DHT22;29836;52.286;9.576;2023-03-01T00:25:09;-4.20;99.90
44170;DHT22;29836;52.286;9.576;2023-03-01T00:27:35;-4.30;99.90
44170;DHT22;29836;52.286;9.576;2023-03-01T00:30:00;-4.40;99.90
44170;DHT22;29836;52.286;9.576;2023-03-01T00:32:26;-4.60;99.90
44170;DHT22;29836;52.286;9.576;2023-03-01T00:34:52;-4.70;99.90
44170;DHT22;29836;52.286;9.576;2023-03-01T00:37:21;-4.90;99.90
44170;DHT22;29836;52.286;9.576;2023-03-01T00:39:47;-5.10;99.90
44170;DHT22;29836;52.286;9.576;2023-03-01T00:42:13;-5.20;99.90
44170;DHT22;29836;52.286;9.576;2023-03-01T00:44:38;-5.30;99.90
44170;DHT22;29836;52.286;9.576;2023-03-01T00:47:04;-5.40;99.90
44170;DHT22;29836;52.286;9.576;2023-03-01T00:49:29;-5.30;99.90
44170;DHT22;29836;52.286;9.576;2023-03-01T00:51:55;-5.20;99.90
44170;DHT22;29836;52.286;9.576;2023-03-01T00:54:20;-5.20;99.90
44170;DHT22;29836;52.286;9.576;2023-03-01T00:56:46;-5.20;99.90
44170;DHT22;29836;52.286;9.576;2023-03-01T00:59:11;-5.20;99.90
44170;DHT22;29836;52.286;9.576;2023-03-01T01:01:37;-5.20;99.90
44170;DHT22;29836;52.286;9.576;2023-03-01T01:04:05;-5.20;99.90
44170;DHT22;29836;52.286;9.576;2023-03-01T01:06:34;-5.20;99.90
44170;DHT22;29836;52.286;9.576;2023-03-01T01:09:00;-5.10;99.90
44170;DHT22;29836;52.286;9.576;2023-03-01T01:11:28;-5.20;99.90
44170;DHT22;29836;52.286;9.576;2023-03-01T01:13:53;-5.20;99.90
44170;DHT22;29836;52.286;9.576;2023-03-01T01:16:22;-5.30;99.90
44170;DHT22;29836;52.286;9.576;2023-03-01T01:18:48;-5.40;99.90
44170;DHT22;29836;52.286;9.576;2023-03-01T01:21:16;-5.50;99.90
44170;DHT22;29836;52.286;9.576;2023-03-01T01:23:42;-5.50;99.90
44170;DHT22;29836;52.286;9.576;2023-03-01T01:26:20;-5.50;99.90
44170;DHT22;29836;52.286;9.576;2023-03-01T01:28:47;-5.60;99.90
44170;DHT22;29836;52.286;9.576;2023-03-01T01:31:13;-5.50;99.90
44170;DHT22;29836;52.286;9.576;2023-03-01T01:33:39;-5.50;99.90
44170;DHT22;29836;52.286;9.576;2023-03-01T01:36:06;-5.50;99.90
44170;DHT22;29836;52.286;9.576;2023-03-01T01:38:32;-5.40;99.90
44170;DHT22;29836;52.286;9.576;2023-03-01T01:40:58;-5.30;99.90
44170;DHT22;29836;52.286;9.576;2023-03-01T01:43:32;-5.20;99.90
44170;DHT22;29836;52.286;9.576;2023-03-01T01:46:02;-5.20;99.90
44170;DHT22;29836;52.286;9.576;2023-03-01T01:48:44;-5.20;99.90
44170;DHT22;29836;52.286;9.576;2023-03-01T01:51:19;-5.20;99.90
44170;DHT22;29836;52.286;9.576;2023-03-01T01:53:53;-5.10;99.90
44170;DHT22;29836;52.286;9.576;2023-03-01T01:56:21;-5.10;99.90
44170;DHT22;29836;52.286;9.576;2023-03-01T01:58:48;-5.10;99.90
44170;DHT22;29836;52.286;9.576;2023-03-01T02:01:14;-5.20;99.90
44170;DHT22;29836;52.286;9.576;2023-03-01T02:03:43;-5.20;99.90
44170;DHT22;29836;52.286;9.576;2023-03-01T02:06:26;-5.20;99.90
44170;DHT22;29836;52.286;9.576;2023-03-01T02:08:59;-5.20;99.90
44170;DHT22;29836;52.286;9.576;2023-03-01T02:11:25;-5.10;99.90
44170;DHT22;29836;52.286;9.576;2023-03-01T02:13:53;-5.10;99.90
44170;DHT22;29836;52.286;9.576;2023-03-01T02:16:19;-5.10;99.90
44170;DHT22;29836;52.286;9.576;2023-03-01T02:18:45;-5.10;99.90
44170;DHT22;29836;52.286;9.576;2023-03-01T02:21:21;-5.10;99.90
44170;DHT22;29836;52.286;9.576;2023-03-01T02:23:50;-5.10;99.90
44170;DHT22;29836;52.286;9.576;2023-03-01T02:26:20;-5.10;99.90
44170;DHT22;29836;52.286;9.576;2023-03-01T02:28:46;-5.20;99.90
44170;DHT22;29836;52.286;9.576;2023-03-01T02:31:17;-5.20;99.90
44170;DHT22;29836;52.286;9.576;2023-03-01T02:34:03;-5.30;99.90
44170;DHT22;29836;52.286;9.576;2023-03-01T02:36:36;-5.30;99.90
44170;DHT22;29836;52.286;9.576;2023-03-01T02:39:05;-5.30;99.90
44170;DHT22;29836;52.286;9.576;2023-03-01T02:41:41;-5.30;99.90
44170;DHT22;29836;52.286;9.576;2023-03-01T02:44:08;-5.40;99.90
44170;DHT22;29836;52.286;9.576;2023-03-01T02:46:34;-5.40;99.90
44170;DHT22;29836;52.286;9.576;2023-03-01T02:49:28;-5.30;99.90
44170;DHT22;29836;52.286;9.576;2023-03-01T02:52:30;-5.30;99.90
44170;DHT22;29836;52.286;9.576;2023-03-01T02:55:10;-5.40;99.90
44170;DHT22;29836;52.286;9.576;2023-03-01T02:57:38;-5.50;99.90
44170;DHT22;29836;52.286;9.576;2023-03-01T03:00:07;-5.50;99.90
44170;DHT22;29836;52.286;9.576;2023-03-01T03:02:34;-5.60;99.90
44170;DHT22;29836;52.286;9.576;2023-03-01T03:05:07;-5.70;99.90
44170;DHT22;29836;52.286;9.576;2023-03-01T03:07:37;-5.70;99.90
44170;DHT22;29836;52.286;9.576;2023-03-01T03:10:04;-5.70;99.90
44170;DHT22;29836;52.286;9.576;2023-03-01T03:12:30;-5.70;99.90
44170;DHT22;29836;52.286;9.576;2023-03-01T03:14:55;-5.70;99.90
44170;DHT22;29836;52.286;9.576;2023-03-01T03:17:21;-5.70;99.90
44170;DHT22;29836;52.286;9.576;2023-03-01T03:19:46;-5.70;99.90
44170;DHT22;29836;52.286;9.576;2023-03-01T03:22:12;-5.70;99.90
44170;DHT22;29836;52.286;9.576;2023-03-01T03:24:38;-5.60;99.90
44170;DHT22;29836;52.286;9.576;2023-03-01T03:27:04;-5.50;99.90
44170;DHT22;29836;52.286;9.576;2023-03-01T03:29:30;-5.50;99.90
44170;DHT22;29836;52.286;9.576;2023-03-01T03:31:55;-5.50;99.90
44170;DHT22;29836;52.286;9.576;2023-03-01T03:34:21;-5.60;99.90
44170;DHT22;29836;52.286;9.576;2023-03-01T03:36:46;-5.60;99.90
44170;DHT22;29836;52.286;9.576;2023-03-01T03:39:12;-5.60;99.90
44170;DHT22;29836;52.286;9.576;2023-03-01T03:41:37;-5.60;99.90
44170;DHT22;29836;52.286;9.576;2023-03-01T03:44:03;-5.70;99.90
44170;DHT22;29836;52.286;9.576;2023-03-01T03:46:28;-5.80;99.90
44170;DHT22;29836;52.286;9.576;2023-03-01T03:48:54;-5.90;99.90
44170;DHT22;29836;52.286;9.576;2023-03-01T03:51:19;-6.00;99.90
44170;DHT22;29836;52.286;9.576;2023-03-01T03:53:47;-6.00;99.90
44170;DHT22;29836;52.286;9.576;2023-03-01T03:56:13;-6.10;99.90
44170;DHT22;29836;52.286;9.576;2023-03-01T03:58:39;-6.10;99.90
44170;DHT22;29836;52.286;9.576;2023-03-01T04:01:05;-6.10;99.90
44170;DHT22;29836;52.286;9.576;2023-03-01T04:03:31;-6.10;99.90
44170;DHT22;29836;52.286;9.576;2023-03-01T04:05:58;-6.10;99.90
44170;DHT22;29836;52.286;9.576;2023-03-01T04:08:24;-6.20;99.90
44170;DHT22;29836;52.286;9.576;2023-03-01T04:10:52;-6.30;99.90
44170;DHT22;29836;52.286;9.576;2023-03-01T04:13:22;-6.40;99.90
44170;DHT22;29836;52.286;9.576;2023-03-01T04:15:49;-6.30;99.90
44170;DHT22;29836;52.286;9.576;2023-03-01T04:18:18;-6.30;99.90
44170;DHT22;29836;52.286;9.576;2023-03-01T04:20:44;-6.20;99.90
44170;DHT22;29836;52.286;9.576;2023-03-01T04:23:16;-6.10;99.90
44170;DHT22;29836;52.286;9.576;2023-03-01T04:25:48;-6.00;99.90
44170;DHT22;29836;52.286;9.576;2023-03-01T04:28:31;-6.00;99.90
44170;DHT22;29836;52.286;9.576;2023-03-01T04:31:16;-6.00;99.90
44170;DHT22;29836;52.286;9.576;2023-03-01T04:33:46;-5.90;99.90
44170;DHT22;29836;52.286;9.576;2023-03-01T04:36:13;-5.90;99.90
44170;DHT22;29836;52.286;9.576;2023-03-01T04:38:40;-5.90;99.90
44170;DHT22;29836;52.286;9.576;2023-03-01T04:41:07;-5.90;99.90
44170;DHT22;29836;52.286;9.576;2023-03-01T04:43:33;-5.80;99.90
44170;DHT22;29836;52.286;9.576;2023-03-01T04:46:11;-5.80;99.90
44170;DHT22;29836;52.286;9.576;2023-03-01T04:48:38;-5.80;99.90
44170;DHT22;29836;52.286;9.576;2023-03-01T04:51:04;-5.80;99.90
44170;DHT22;29836;52.286;9.576;2023-03-01T04:53:31;-5.80;99.90
44170;DHT22;29836;52.286;9.576;2023-03-01T04:55:58;-5.80;99.90
44170;DHT22;29836;52.286;9.576;2023-03-01T04:58:25;-5.70;99.90
44170;DHT22;29836;52.286;9.576;2023-03-01T05:00:50;-5.60;99.90
44170;DHT22;29836;52.286;9.576;2023-03-01T05:03:16;-5.50;99.90
44170;DHT22;29836;52.286;9.576;2023-03-01T05:05:46;-5.60;99.90
44170;DHT22;29836;52.286;9.576;2023-03-01T05:08:13;-5.60;99.90
44170;DHT22;29836;52.286;9.576;2023-03-01T05:10:44;-5.70;99.90
44170;DHT22;29836;52.286;9.576;2023-03-01T05:13:11;-5.70;99.90
44170;DHT22;29836;52.286;9.576;2023-03-01T05:15:38;-5.70;99.90
44170;DHT22;29836;52.286;9.576;2023-03-01T05:18:04;-5.80;99.90
44170;DHT22;29836;52.286;9.576;2023-03-01T05:20:32;-5.80;99.90
44170;DHT22;29836;52.286;9.576;2023-03-01T05:23:01;-5.90;99.90
44170;DHT22;29836;52.286;9.576;2023-03-01T05:25:31;-6.00;99.90
44170;DHT22;29836;52.286;9.576;2023-03-01T05:27:58;-6.00;99.90
44170;DHT22;29836;52.286;9.576;2023-03-01T05:30:24;-6.00;99.90
44170;DHT22;29836;52.286;9.576;2023-03-01T05:32:50;-6.10;99.90
44170;DHT22;29836;52.286;9.576;2023-03-01T05:35:21;-6.10;99.90
44170;DHT22;29836;52.286;9.576;2023-03-01T05:37:48;-6.10;99.90
44170;DHT22;29836;52.286;9.576;2023-03-01T05:40:17;-6.10;99.90
44170;DHT22;29836;52.286;9.576;2023-03-01T05:42:48;-6.10;99.90
44170;DHT22;29836;52.286;9.576;2023-03-01T05:45:15;-6.10;99.90
44170;DHT22;29836;52.286;9.576;2023-03-01T05:47:43;-6.10;99.90
44170;DHT22;29836;52.286;9.576;2023-03-01T05:50:27;-6.00;99.90
44170;DHT22;29836;52.286;9.576;2023-03-01T05:53:14;-6.00;99.90
44170;DHT22;29836;52.286;9.576;2023-03-01T05:55:41;-6.00;99.90
44170;DHT22;29836;52.286;9.576;2023-03-01T05:58:10;-5.90;99.90
44170;DHT22;29836;52.286;9.576;2023-03-01T06:00:53;-5.90;99.90
44170;DHT22;29836;52.286;9.576;2023-03-01T06:03:56;-6.00;99.90
44170;DHT22;29836;52.286;9.576;2023-03-01T06:06:29;-6.10;99.90
44170;DHT22;29836;52.286;9.576;2023-03-01T06:08:55;-6.20;99.90
44170;DHT22;29836;52.286;9.576;2023-03-01T06:11:21;-6.10;99.90
44170;DHT22;29836;52.286;9.576;2023-03-01T06:13:46;-6.10;99.90
44170;DHT22;29836;52.286;9.576;2023-03-01T06:16:13;-6.10;99.90
44170;DHT22;29836;52.286;9.576;2023-03-01T06:18:39;-6.00;99.90
44170;DHT22;29836;52.286;9.576;2023-03-01T06:21:06;-5.80;99.90
44170;DHT22;29836;52.286;9.576;2023-03-01T06:23:32;-5.50;99.90
44170;DHT22;29836;52.286;9.576;2023-03-01T06:25:57;-5.20;99.90
44170;DHT22;29836;52.286;9.576;2023-03-01T06:28:23;-4.90;99.90
44170;DHT22;29836;52.286;9.576;2023-03-01T06:30:49;-4.70;99.90
44170;DHT22;29836;52.286;9.576;2023-03-01T06:33:15;-4.70;99.90
44170;DHT22;29836;52.286;9.576;2023-03-01T06:35:41;-4.50;99.90
44170;DHT22;29836;52.286;9.576;2023-03-01T06:38:06;-4.30;99.90
44170;DHT22;29836;52.286;9.576;2023-03-01T06:40:32;-4.10;99.90
44170;DHT22;29836;52.286;9.576;2023-03-01T06:43:01;-3.80;99.90
44170;DHT22;29836;52.286;9.576;2023-03-01T06:45:27;-3.20;99.90
44170;DHT22;29836;52.286;9.576;2023-03-01T06:47:52;-2.70;99.90
44170;DHT22;29836;52.286;9.576;2023-03-01T06:50:18;-2.20;99.90
44170;DHT22;29836;52.286;9.576;2023-03-01T06:52:44;-1.80;99.90
44170;DHT22;29836;52.286;9.576;2023-03-01T06:55:11;-1.10;99.90
44170;DHT22;29836;52.286;9.576;2023-03-01T06:57:36;-0.40;99.90
44170;DHT22;29836;52.286;9.576;2023-03-01T07:00:04;0.30;99.90
44170;DHT22;29836;52.286;9.576;2023-03-01T07:02:30;1.00;99.90
44170;DHT22;29836;52.286;9.576;2023-03-01T07:04:55;1.80;99.90
44170;DHT22;29836;52.286;9.576;2023-03-01T07:07:21;2.80;99.90
44170;DHT22;29836;52.286;9.576;2023-03-01T07:09:48;3.40;99.90
44170;DHT22;29836;52.286;9.576;2023-03-01T07:12:14;3.70;99.90
44170;DHT22;29836;52.286;9.576;2023-03-01T07:14:40;4.00;99.90
44170;DHT22;29836;52.286;9.576;2023-03-01T07:17:05;4.10;99.90
44170;DHT22;29836;52.286;9.576;2023-03-01T07:19:31;4.30;99.90
44170;DHT22;29836;52.286;9.576;2023-03-01T07:21:57;4.60;99.90
44170;DHT22;29836;52.286;9.576;2023-03-01T07:24:22;4.90;97.30
44170;DHT22;29836;52.286;9.576;2023-03-01T07:26:49;4.70;95.50
44170;DHT22;29836;52.286;9.576;2023-03-01T07:29:15;4.90;94.70
44170;DHT22;29836;52.286;9.576;2023-03-01T07:31:41;5.40;94.50
44170;DHT22;29836;52.286;9.576;2023-03-01T07:34:06;6.10;90.50
44170;DHT22;29836;52.286;9.576;2023-03-01T07:36:32;6.20;90.40
44170;DHT22;29836;52.286;9.576;2023-03-01T07:38:58;6.10;90.00
44170;DHT22;29836;52.286;9.576;2023-03-01T07:41:23;6.10;90.20
44170;DHT22;29836;52.286;9.576;2023-03-01T07:43:49;6.40;90.30
44170;DHT22;29836;52.286;9.576;2023-03-01T07:46:15;6.30;88.00
44170;DHT22;29836;52.286;9.576;2023-03-01T07:48:40;6.40;87.00
44170;DHT22;29836;52.286;9.576;2023-03-01T07:51:07;6.60;88.00
44170;DHT22;29836;52.286;9.576;2023-03-01T07:53:34;7.20;85.60
44170;DHT22;29836;52.286;9.576;2023-03-01T07:56:04;7.80;81.20
44170;DHT22;29836;52.286;9.576;2023-03-01T07:58:29;7.90;80.30
44170;DHT22;29836;52.286;9.576;2023-03-01T08:00:55;7.50;81.00
44170;DHT22;29836;52.286;9.576;2023-03-01T08:03:20;7.30;78.90
44170;DHT22;29836;52.286;9.576;2023-03-01T08:05:46;6.90;82.40
44170;DHT22;29836;52.286;9.576;2023-03-01T08:08:12;6.90;83.10
44170;DHT22;29836;52.286;9.576;2023-03-01T08:10:37;7.30;83.30
44170;DHT22;29836;52.286;9.576;2023-03-01T08:13:03;7.50;82.30
44170;DHT22;29836;52.286;9.576;2023-03-01T08:15:28;7.00;84.50
44170;DHT22;29836;52.286;9.576;2023-03-01T08:17:54;6.30;86.80
44170;DHT22;29836;52.286;9.576;2023-03-01T08:20:19;6.10;90.40
44170;DHT22;29836;52.286;9.576;2023-03-01T08:22:45;6.20;90.90
44170;DHT22;29836;52.286;9.576;2023-03-01T08:25:10;7.20;90.30
44170;DHT22;29836;52.286;9.576;2023-03-01T08:27:36;8.60;82.60
44170;DHT22;29836;52.286;9.576;2023-03-01T08:30:02;9.60;78.90
44170;DHT22;29836;52.286;9.576;2023-03-01T08:32:27;10.50;72.00
44170;DHT22;29836;52.286;9.576;2023-03-01T08:34:53;11.10;70.70
44170;DHT22;29836;52.286;9.576;2023-03-01T08:37:19;11.20;68.00
44170;DHT22;29836;52.286;9.576;2023-03-01T08:39:44;12.30;65.60
44170;DHT22;29836;52.286;9.576;2023-03-01T08:42:10;12.70;63.20
44170;DHT22;29836;52.286;9.576;2023-03-01T08:44:35;13.00;62.40
44170;DHT22;29836;52.286;9.576;2023-03-01T08:47:00;13.80;59.80
44170;DHT22;29836;52.286;9.576;2023-03-01T08:49:27;14.70;58.30
44170;DHT22;29836;52.286;9.576;2023-03-01T08:51:53;15.40;54.50
44170;DHT22;29836;52.286;9.576;2023-03-01T08:54:21;15.90;50.80
44170;DHT22;29836;52.286;9.576;2023-03-01T08:56:47;15.90;51.20
44170;DHT22;29836;52.286;9.576;2023-03-01T08:59:14;16.20;49.40
44170;DHT22;29836;52.286;9.576;2023-03-01T09:01:40;15.60;50.40
44170;DHT22;29836;52.286;9.576;2023-03-01T09:04:09;14.90;51.40
44170;DHT22;29836;52.286;9.576;2023-03-01T09:06:34;14.60;51.90
44170;DHT22;29836;52.286;9.576;2023-03-01T09:09:01;15.90;49.90
44170;DHT22;29836;52.286;9.576;2023-03-01T09:11:27;16.30;49.90
44170;DHT22;29836;52.286;9.576;2023-03-01T09:13:53;16.80;48.60
44170;DHT22;29836;52.286;9.576;2023-03-01T09:16:20;16.90;47.60
44170;DHT22;29836;52.286;9.576;2023-03-01T09:18:53;16.60;48.70
44170;DHT22;29836;52.286;9.576;2023-03-01T09:21:20;16.70;49.20
44170;DHT22;29836;52.286;9.576;2023-03-01T09:23:47;16.60;49.20
44170;DHT22;29836;52.286;9.576;2023-03-01T09:26:18;16.90;47.90
44170;DHT22;29836;52.286;9.576;2023-03-01T09:28:45;16.70;47.60
44170;DHT22;29836;52.286;9.576;2023-03-01T09:31:11;16.50;47.90
44170;DHT22;29836;52.286;9.576;2023-03-01T09:33:40;15.90;49.10
44170;DHT22;29836;52.286;9.576;2023-03-01T09:36:10;14.90;50.40
44170;DHT22;29836;52.286;9.576;2023-03-01T09:38:36;14.30;50.60
44170;DHT22;29836;52.286;9.576;2023-03-01T09:41:01;13.30;54.10
44170;DHT22;29836;52.286;9.576;2023-03-01T09:43:48;13.20;52.40
44170;DHT22;29836;52.286;9.576;2023-03-01T09:46:20;12.30;54.10
44170;DHT22;29836;52.286;9.576;2023-03-01T09:49:04;11.60;57.30
44170;DHT22;29836;52.286;9.576;2023-03-01T09:51:32;11.50;55.60
44170;DHT22;29836;52.286;9.576;2023-03-01T09:53:58;10.80;57.20
44170;DHT22;29836;52.286;9.576;2023-03-01T09:56:40;10.70;58.60
44170;DHT22;29836;52.286;9.576;2023-03-01T09:59:41;10.50;59.60
44170;DHT22;29836;52.286;9.576;2023-03-01T10:10:37;10.30;60.80
44170;DHT22;29836;52.286;9.576;2023-03-01T10:13:22;11.10;59.80
44170;DHT22;29836;52.286;9.576;2023-03-01T10:15:59;11.40;59.10
44170;DHT22;29836;52.286;9.576;2023-03-01T10:18:29;11.70;58.30
44170;DHT22;29836;52.286;9.576;2023-03-01T10:20:59;11.30;57.20
44170;DHT22;29836;52.286;9.576;2023-03-01T10:23:28;10.60;61.20
44170;DHT22;29836;52.286;9.576;2023-03-01T10:26:19;10.90;61.70
44170;DHT22;29836;52.286;9.576;2023-03-01T10:34:02;10.50;59.50
44170;DHT22;29836;52.286;9.576;2023-03-01T10:36:32;10.90;59.40
44170;DHT22;29836;52.286;9.576;2023-03-01T10:38:58;11.30;58.70
44170;DHT22;29836;52.286;9.576;2023-03-01T10:41:25;10.60;59.80
44170;DHT22;29836;52.286;9.576;2023-03-01T10:43:55;10.10;61.60
44170;DHT22;29836;52.286;9.576;2023-03-01T10:46:28;10.80;61.40
44170;DHT22;29836;52.286;9.576;2023-03-01T10:49:16;11.50;58.90
44170;DHT22;29836;52.286;9.576;2023-03-01T10:51:44;11.70;59.10
44170;DHT22;29836;52.286;9.576;2023-03-01T10:54:31;11.40;58.50
44170;DHT22;29836;52.286;9.576;2023-03-01T10:56:59;11.60;57.90
44170;DHT22;29836;52.286;9.576;2023-03-01T10:59:36;11.30;59.20
44170;DHT22;29836;52.286;9.576;2023-03-01T11:02:30;11.00;59.70
44170;DHT22;29836;52.286;9.576;2023-03-01T11:05:07;11.40;57.80
44170;DHT22;29836;52.286;9.576;2023-03-01T11:07:49;11.50;58.90
44170;DHT22;29836;52.286;9.576;2023-03-01T11:10:20;10.60;59.70
44170;DHT22;29836;52.286;9.576;2023-03-01T11:12:46;11.30;58.40
44170;DHT22;29836;52.286;9.576;2023-03-01T11:15:28;10.40;60.20
44170;DHT22;29836;52.286;9.576;2023-03-01T11:17:55;9.20;63.40
44170;DHT22;29836;52.286;9.576;2023-03-01T11:20:32;7.30;68.00
44170;DHT22;29836;52.286;9.576;2023-03-01T11:23:03;6.00;71.70
44170;DHT22;29836;52.286;9.576;2023-03-01T11:25:34;5.50;73.90
44170;DHT22;29836;52.286;9.576;2023-03-01T11:28:04;5.30;75.20
44170;DHT22;29836;52.286;9.576;2023-03-01T11:33:18;4.80;89.40
44170;DHT22;29836;52.286;9.576;2023-03-01T11:35:55;4.80;86.60
44170;DHT22;29836;52.286;9.576;2023-03-01T11:38:25;4.80;90.10
44170;DHT22;29836;52.286;9.576;2023-03-01T11:40:57;4.80;91.40
44170;DHT22;29836;52.286;9.576;2023-03-01T11:43:36;4.80;94.00
44170;DHT22;29836;52.286;9.576;2023-03-01T11:57:31;4.80;90.80
44170;DHT22;29836;52.286;9.576;2023-03-01T12:02:59;4.60;92.10
44170;DHT22;29836;52.286;9.576;2023-03-01T12:08:33;4.60;92.10
44170;DHT22;29836;52.286;9.576;2023-03-01T12:13:43;4.50;93.00
44170;DHT22;29836;52.286;9.576;2023-03-01T12:23:55;4.60;91.40
44170;DHT22;29836;52.286;9.576;2023-03-01T12:26:34;4.70;91.80
44170;DHT22;29836;52.286;9.576;2023-03-01T12:29:21;4.60;91.50
44170;DHT22;29836;52.286;9.576;2023-03-01T12:37:54;4.70;94.10
44170;DHT22;29836;52.286;9.576;2023-03-01T12:40:30;4.70;93.10
44170;DHT22;29836;52.286;9.576;2023-03-01T12:43:26;4.70;95.40
44170;DHT22;29836;52.286;9.576;2023-03-01T12:46:28;4.80;95.70
44170;DHT22;29836;52.286;9.576;2023-03-01T12:49:09;4.80;91.00
44170;DHT22;29836;52.286;9.576;2023-03-01T12:51:38;4.80;92.80
44170;DHT22;29836;52.286;9.576;2023-03-01T12:54:14;4.80;90.90
44170;DHT22;29836;52.286;9.576;2023-03-01T12:56:40;4.80;91.00
44170;DHT22;29836;52.286;9.576;2023-03-01T13:04:33;4.70;90.80
44170;DHT22;29836;52.286;9.576;2023-03-01T13:07:25;4.70;92.00
44170;DHT22;29836;52.286;9.576;2023-03-01T13:18:01;4.70;92.70
44170;DHT22;29836;52.286;9.576;2023-03-01T13:20:32;4.80;91.10
44170;DHT22;29836;52.286;9.576;2023-03-01T13:25:32;4.70;90.80
44170;DHT22;29836;52.286;9.576;2023-03-01T13:31:03;4.70;93.80
44170;DHT22;29836;52.286;9.576;2023-03-01T13:35:59;4.80;91.70
44170;DHT22;29836;52.286;9.576;2023-03-01T13:38:45;4.90;94.90
44170;DHT22;29836;52.286;9.576;2023-03-01T13:41:13;4.90;90.20
44170;DHT22;29836;52.286;9.576;2023-03-01T13:43:41;4.80;91.20
44170;DHT22;29836;52.286;9.576;2023-03-01T13:46:36;4.80;90.60
44170;DHT22;29836;52.286;9.576;2023-03-01T13:49:03;4.80;90.00
44170;DHT22;29836;52.286;9.576;2023-03-01T13:51:29;4.80;90.80
44170;DHT22;29836;52.286;9.576;2023-03-01T13:53:56;4.80;89.90
44170;DHT22;29836;52.286;9.576;2023-03-01T13:56:27;4.80;86.80
44170;DHT22;29836;52.286;9.576;2023-03-01T13:58:54;4.80;84.90
44170;DHT22;29836;52.286;9.576;2023-03-01T14:01:32;4.90;90.40
44170;DHT22;29836;52.286;9.576;2023-03-01T14:03:59;4.90;88.20
44170;DHT22;29836;52.286;9.576;2023-03-01T14:06:26;4.90;86.80
44170;DHT22;29836;52.286;9.576;2023-03-01T14:09:05;4.80;89.30
44170;DHT22;29836;52.286;9.576;2023-03-01T14:11:52;4.90;89.20
44170;DHT22;29836;52.286;9.576;2023-03-01T14:17:42;4.90;86.90
44170;DHT22;29836;52.286;9.576;2023-03-01T14:20:14;4.90;83.70
44170;DHT22;29836;52.286;9.576;2023-03-01T14:22:43;4.80;90.20
44170;DHT22;29836;52.286;9.576;2023-03-01T14:25:27;4.90;88.80
44170;DHT22;29836;52.286;9.576;2023-03-01T14:28:10;4.90;87.00
44170;DHT22;29836;52.286;9.576;2023-03-01T14:30:43;4.80;86.80
44170;DHT22;29836;52.286;9.576;2023-03-01T14:33:32;4.90;86.70
44170;DHT22;29836;52.286;9.576;2023-03-01T14:36:08;4.90;89.10
44170;DHT22;29836;52.286;9.576;2023-03-01T14:38:41;4.80;89.00
44170;DHT22;29836;52.286;9.576;2023-03-01T14:41:18;4.80;87.60
44170;DHT22;29836;52.286;9.576;2023-03-01T14:43:46;4.80;86.50
44170;DHT22;29836;52.286;9.576;2023-03-01T14:48:51;4.70;88.90
44170;DHT22;29836;52.286;9.576;2023-03-01T14:51:18;4.70;89.00
44170;DHT22;29836;52.286;9.576;2023-03-01T14:53:43;4.70;85.60
44170;DHT22;29836;52.286;9.576;2023-03-01T14:56:15;4.70;88.80
44170;DHT22;29836;52.286;9.576;2023-03-01T14:58:42;4.70;88.80
44170;DHT22;29836;52.286;9.576;2023-03-01T15:01:14;4.70;88.20
44170;DHT22;29836;52.286;9.576;2023-03-01T15:03:45;4.60;90.90
44170;DHT22;29836;52.286;9.576;2023-03-01T15:06:15;4.60;90.40
44170;DHT22;29836;52.286;9.576;2023-03-01T15:08:44;4.60;89.70
44170;DHT22;29836;52.286;9.576;2023-03-01T15:11:23;4.60;88.20
44170;DHT22;29836;52.286;9.576;2023-03-01T15:13:50;4.60;89.50
44170;DHT22;29836;52.286;9.576;2023-03-01T15:16:31;4.60;88.10
44170;DHT22;29836;52.286;9.576;2023-03-01T15:21:30;4.50;90.70
44170;DHT22;29836;52.286;9.576;2023-03-01T15:24:07;4.50;90.00
44170;DHT22;29836;52.286;9.576;2023-03-01T15:26:54;4.50;87.60
44170;DHT22;29836;52.286;9.576;2023-03-01T15:29:26;4.40;87.00
44170;DHT22;29836;52.286;9.576;2023-03-01T15:36:52;4.40;87.60
44170;DHT22;29836;52.286;9.576;2023-03-01T15:39:38;4.30;90.40
44170;DHT22;29836;52.286;9.576;2023-03-01T15:42:12;4.20;91.00
44170;DHT22;29836;52.286;9.576;2023-03-01T15:44:40;4.10;90.90
44170;DHT22;29836;52.286;9.576;2023-03-01T15:47:40;4.00;90.60
44170;DHT22;29836;52.286;9.576;2023-03-01T15:50:22;4.00;92.00
44170;DHT22;29836;52.286;9.576;2023-03-01T15:52:47;4.00;93.10
44170;DHT22;29836;52.286;9.576;2023-03-01T15:55:21;3.80;92.80
44170;DHT22;29836;52.286;9.576;2023-03-01T15:57:47;3.90;91.60
44170;DHT22;29836;52.286;9.576;2023-03-01T16:00:14;3.90;93.70
44170;DHT22;29836;52.286;9.576;2023-03-01T16:02:42;3.80;95.40
44170;DHT22;29836;52.286;9.576;2023-03-01T16:05:28;3.90;93.80
44170;DHT22;29836;52.286;9.576;2023-03-01T16:07:54;3.90;92.10
44170;DHT22;29836;52.286;9.576;2023-03-01T16:10:21;3.90;91.60
44170;DHT22;29836;52.286;9.576;2023-03-01T16:12:46;4.00;91.30
44170;DHT22;29836;52.286;9.576;2023-03-01T16:15:20;4.00;91.90
44170;DHT22;29836;52.286;9.576;2023-03-01T16:17:47;3.90;92.30
44170;DHT22;29836;52.286;9.576;2023-03-01T16:20:12;3.80;92.70
44170;DHT22;29836;52.286;9.576;2023-03-01T16:22:41;3.60;92.60
44170;DHT22;29836;52.286;9.576;2023-03-01T16:25:09;3.50;92.30
44170;DHT22;29836;52.286;9.576;2023-03-01T16:27:35;3.50;92.30
44170;DHT22;29836;52.286;9.576;2023-03-01T16:30:01;3.40;93.60
44170;DHT22;29836;52.286;9.576;2023-03-01T16:32:26;3.30;93.40
44170;DHT22;29836;52.286;9.576;2023-03-01T16:34:52;3.20;93.90
44170;DHT22;29836;52.286;9.576;2023-03-01T16:37:17;3.00;94.10
44170;DHT22;29836;52.286;9.576;2023-03-01T16:39:44;2.90;94.10
44170;DHT22;29836;52.286;9.576;2023-03-01T16:42:09;2.90;93.70
44170;DHT22;29836;52.286;9.576;2023-03-01T16:44:35;3.00;93.80
44170;DHT22;29836;52.286;9.576;2023-03-01T16:47:01;3.00;93.10
44170;DHT22;29836;52.286;9.576;2023-03-01T16:49:26;2.80;94.10
44170;DHT22;29836;52.286;9.576;2023-03-01T16:51:53;2.80;93.80
44170;DHT22;29836;52.286;9.576;2023-03-01T16:54:19;2.70;94.20
44170;DHT22;29836;52.286;9.576;2023-03-01T16:56:44;2.60;94.40
44170;DHT22;29836;52.286;9.576;2023-03-01T16:59:10;2.60;94.50
44170;DHT22;29836;52.286;9.576;2023-03-01T17:01:35;2.60;94.20
44170;DHT22;29836;52.286;9.576;2023-03-01T17:04:06;2.70;93.90
44170;DHT22;29836;52.286;9.576;2023-03-01T17:06:31;2.70;93.90
44170;DHT22;29836;52.286;9.576;2023-03-01T17:08:58;2.60;94.20
44170;DHT22;29836;52.286;9.576;2023-03-01T17:11:24;2.60;94.20
44170;DHT22;29836;52.286;9.576;2023-03-01T17:13:50;2.50;94.60
44170;DHT22;29836;52.286;9.576;2023-03-01T17:16:17;2.40;94.50
44170;DHT22;29836;52.286;9.576;2023-03-01T17:18:44;2.40;94.70